createdAt,value
2023-04-14T00:02:54.322Z,96063.97
2023-04-14T00:06:58.700Z,96059.97
2023-04-14T00:10:59.421Z,96056.56
2023-04-14T00:15:03.472Z,96031.91
2023-04-14T00:19:03.992Z,96055.09
2023-04-14T00:23:04.583Z,96050.88
2023-04-14T00:27:05.319Z,96063.69
2023-04-14T00:31:08.862Z,96059.47
2023-04-14T00:35:10.268Z,96069.00
2023-04-14T00:39:10.742Z,96055.38
2023-04-14T00:43:11.169Z,96060.88
2023-04-14T00:47:14.602Z,96063.31
2023-04-14T00:51:16.156Z,96062.75
2023-04-14T00:55:19.118Z,96067.53
2023-04-14T00:59:20.617Z,96069.19
2023-04-14T01:03:25.018Z,96078.25
2023-04-14T01:07:28.830Z,96082.06
2023-04-14T01:11:52.183Z,96086.84
2023-04-14T01:16:00.612Z,96079.91
2023-04-14T01:20:23.088Z,96070.50
2023-04-14T01:24:43.602Z,96075.81
2023-04-14T01:29:14.242Z,96072.53
2023-04-14T01:33:25.730Z,96063.69
2023-04-14T01:37:34.567Z,96060.97
2023-04-14T01:41:37.356Z,96060.34
2023-04-14T01:45:46.530Z,96054.44
2023-04-14T01:49:55.884Z,96065.03
2023-04-14T01:54:00.717Z,96068.81
2023-04-14T01:58:06.942Z,96056.69
2023-04-14T02:02:12.690Z,96063.44
2023-04-14T02:06:17.300Z,96064.66
2023-04-14T02:10:21.621Z,96070.84
2023-04-14T02:14:24.748Z,96036.94
2023-04-14T02:18:27.396Z,96063.06
2023-04-14T02:22:31.319Z,96066.06
2023-04-14T02:26:39.959Z,96073.31
2023-04-14T02:30:45.377Z,96078.63
2023-04-14T02:34:55.709Z,96081.28
2023-04-14T02:39:03.875Z,96091.56
2023-04-14T02:43:14.787Z,96103.47
2023-04-14T02:47:27.064Z,96104.06
2023-04-14T02:51:34.692Z,96093.47
2023-04-14T02:55:40.009Z,96076.81
2023-04-14T02:59:45.237Z,96078.13
2023-04-14T03:03:47.141Z,96084.94
2023-04-14T03:07:50.234Z,96072.53
2023-04-14T03:11:58.419Z,96061.59
2023-04-14T03:16:01.580Z,96058.97
2023-04-14T03:20:04.355Z,96070.06
2023-04-14T03:24:06.963Z,96073.31
2023-04-14T03:28:16.804Z,96074.84
2023-04-14T03:32:23.269Z,96080.06
2023-04-14T03:36:26.486Z,96075.88
2023-04-14T03:40:32.505Z,96073.25
2023-04-14T03:44:39.103Z,96076.97
2023-04-14T03:48:44.660Z,96066.31
2023-04-14T03:52:53.830Z,96075.81
2023-04-14T03:56:57.721Z,96062.44
2023-04-14T04:01:05.729Z,96062.19
2023-04-14T04:05:09.215Z,96060.31
2023-04-14T04:09:15.036Z,96055.25
2023-04-14T04:13:20.738Z,96057.63
2023-04-14T04:17:29.630Z,96046.44
2023-04-14T04:21:33.656Z,96044.81
2023-04-14T04:25:35.205Z,96050.94
2023-04-14T04:29:44.256Z,96043.50
2023-04-14T04:33:49.723Z,96042.16
2023-04-14T04:37:54.107Z,96040.00
2023-04-14T04:42:04.237Z,96045.31
2023-04-14T04:46:51.755Z,96048.50
2023-04-14T04:50:55.833Z,96041.38
2023-04-14T04:54:56.361Z,96049.59
2023-04-14T04:58:57.208Z,96041.22
2023-04-14T05:02:58.402Z,96037.75
2023-04-14T05:07:01.973Z,96061.03
2023-04-14T05:11:02.424Z,96071.63
2023-04-14T05:15:03.271Z,96070.63
2023-04-14T05:19:04.146Z,96063.31
2023-04-14T05:23:07.564Z,96053.81
2023-04-14T05:27:14.274Z,96064.41
2023-04-14T05:31:15.348Z,96059.69
2023-04-14T05:35:16.336Z,96068.75
2023-04-14T05:39:20.085Z,96072.72
2023-04-14T05:43:20.494Z,96074.63
2023-04-14T05:47:21.305Z,96067.94
2023-04-14T05:51:21.758Z,96074.06
2023-04-14T05:55:25.151Z,96085.78
2023-04-14T05:59:25.841Z,96077.00
2023-04-14T06:03:26.643Z,96078.34
2023-04-14T06:07:27.622Z,96082.13
2023-04-14T06:11:33.585Z,96078.13
2023-04-14T06:15:37.514Z,96074.97
2023-04-14T06:19:38.094Z,96077.88
2023-04-14T06:23:39.297Z,96066.72
2023-04-14T06:27:42.504Z,96047.56
2023-04-14T06:31:43.140Z,96071.22
2023-04-14T06:35:43.858Z,96060.31
2023-04-14T06:39:44.525Z,96057.63
2023-04-14T06:43:50.474Z,96065.13
2023-04-14T06:47:51.388Z,96057.91
2023-04-14T06:51:52.006Z,96062.44
2023-04-14T06:55:59.884Z,96065.59
2023-04-14T07:00:04.506Z,96073.06
2023-04-14T07:04:08.368Z,96061.38
2023-04-14T07:08:09.044Z,96061.38
2023-04-14T07:12:09.884Z,96052.56
2023-04-14T07:16:13.654Z,96046.09
2023-04-14T07:20:15.138Z,96056.44
2023-04-14T07:24:16.211Z,96057.31
2023-04-14T07:28:16.954Z,96060.88
2023-04-14T07:32:20.526Z,96050.88
2023-04-14T07:36:21.337Z,96036.84
2023-04-14T07:40:22.028Z,96025.50
2023-04-14T07:44:22.602Z,96040.66
2023-04-14T07:48:26.282Z,96049.69
2023-04-14T07:52:26.853Z,96044.06
2023-04-14T07:56:27.329Z,96041.25
2023-04-14T08:00:28.202Z,96034.38
2023-04-14T08:04:31.890Z,96034.38
2023-04-14T08:08:32.519Z,96040.94
2023-04-14T08:12:33.146Z,96040.03
2023-04-14T08:16:37.140Z,96036.28
2023-04-14T08:20:40.661Z,96037.16
2023-04-14T08:24:41.146Z,96066.03
2023-04-14T08:28:42.168Z,96046.06
2023-04-14T08:32:42.682Z,96033.31
2023-04-14T08:36:47.711Z,96034.91
2023-04-14T08:40:50.941Z,96039.34
2023-04-14T08:44:52.896Z,96041.03
2023-04-14T08:49:04.348Z,96047.50
2023-04-14T08:53:13.695Z,96069.47
2023-04-14T08:57:20.721Z,96065.50
2023-04-14T09:01:22.544Z,96044.22
2023-04-14T09:05:23.638Z,96040.09
2023-04-14T09:09:28.138Z,96050.22
2023-04-14T09:13:31.467Z,96041.84
2023-04-14T09:17:34.683Z,96042.91
2023-04-14T09:21:53.382Z,96043.25
2023-04-14T09:25:59.684Z,96060.88
2023-04-14T09:30:01.549Z,96059.31
2023-04-14T09:34:02.860Z,96057.13
2023-04-14T09:38:05.222Z,96060.72
2023-04-14T09:42:08.619Z,96054.94
2023-04-14T09:46:11.687Z,96048.13
2023-04-14T09:50:13.836Z,96044.06
2023-04-14T09:54:14.550Z,96063.34
2023-04-14T09:58:24.621Z,96060.19
2023-04-14T10:02:28.923Z,96057.94
2023-04-14T10:06:31.633Z,96045.13
2023-04-14T10:10:33.742Z,96035.06
2023-04-14T10:14:37.455Z,96027.72
2023-04-14T10:18:38.557Z,96014.75
2023-04-14T10:22:41.134Z,96010.56
2023-04-14T10:26:43.089Z,96003.94
2023-04-14T10:30:47.313Z,95989.25
2023-04-14T10:35:05.707Z,95994.19
2023-04-14T10:39:10.701Z,96010.03
2023-04-14T10:43:16.201Z,96008.28
2023-04-14T10:47:27.815Z,96006.47
2023-04-14T10:51:39.050Z,96014.38
2023-04-14T10:55:56.969Z,95999.19
2023-04-14T11:00:01.694Z,96003.16
2023-04-14T11:04:21.685Z,96020.03
2023-04-14T11:08:29.627Z,95999.66
2023-04-14T11:12:31.839Z,95992.03
2023-04-14T11:16:32.887Z,95992.53
2023-04-14T11:20:36.275Z,95999.38
2023-04-14T11:24:37.705Z,95997.06
2023-04-14T11:28:41.003Z,95999.69
2023-04-14T11:32:51.894Z,95997.19
2023-04-14T11:36:56.490Z,95985.03
2023-04-14T11:40:59.769Z,95992.16
2023-04-14T11:45:03.599Z,95995.09
2023-04-14T11:49:07.355Z,95994.44
2023-04-14T11:53:14.910Z,95987.41
2023-04-14T11:57:17.845Z,95974.47
2023-04-14T12:01:25.383Z,95970.69
2023-04-14T12:05:50.879Z,95875.09
2023-04-14T12:20:27.426Z,95874.59
2023-04-14T12:25:10.784Z,95890.31
2023-04-14T12:29:56.815Z,95878.56
2023-04-14T12:34:28.286Z,95902.34
2023-04-14T12:45:15.427Z,95825.03
2023-04-14T12:50:03.338Z,95857.84
2023-04-14T12:55:13.680Z,95800.78
2023-04-14T12:59:35.586Z,95854.53
2023-04-14T13:03:47.869Z,95913.66
2023-04-14T13:07:57.761Z,95934.75
2023-04-14T13:11:58.315Z,95902.44
2023-04-14T13:16:14.245Z,95906.88
2023-04-14T13:20:47.312Z,95890.94
2023-04-14T13:26:45.092Z,95896.78
2023-04-14T13:30:41.893Z,95863.78
2023-04-14T13:34:52.621Z,95933.41
2023-04-14T13:38:55.902Z,95936.00
2023-04-14T13:42:58.604Z,95933.94
2023-04-14T13:47:22.858Z,95934.69
2023-04-14T13:56:27.500Z,95914.97
2023-04-14T14:00:27.987Z,95946.97
2023-04-14T14:04:28.387Z,95939.13
2023-04-14T14:08:30.410Z,95927.78
2023-04-14T14:12:34.563Z,95937.19
2023-04-14T14:16:37.027Z,95942.84
2023-04-14T14:20:37.639Z,95938.91
2023-04-14T14:24:37.830Z,95946.84
2023-04-14T14:28:40.589Z,95958.97
2023-04-14T14:32:40.794Z,95939.66
2023-04-14T14:36:41.126Z,95938.56
2023-04-14T14:40:41.339Z,95928.19
2023-04-14T14:44:44.357Z,95937.19
2023-04-14T14:48:44.586Z,95916.28
2023-04-14T14:52:45.861Z,95929.34
2023-04-14T14:56:46.010Z,95922.53
2023-04-14T15:00:49.670Z,95938.59
2023-04-14T15:04:50.068Z,95903.56
2023-04-14T15:08:51.737Z,95924.84
2023-04-14T15:12:52.038Z,95917.19
2023-04-14T15:16:54.923Z,95925.34
2023-04-14T15:20:56.977Z,95927.91
2023-04-14T15:24:57.179Z,95922.06
2023-04-14T15:28:57.342Z,95917.28
2023-04-14T15:33:01.143Z,95916.50
2023-04-14T15:37:01.605Z,95919.06
2023-04-14T15:41:04.434Z,95916.88
2023-04-14T15:45:04.776Z,95895.25
2023-04-14T15:49:07.589Z,95899.44
2023-04-14T15:53:08.372Z,95920.50
2023-04-14T15:57:09.294Z,95904.66
2023-04-14T16:01:12.736Z,95904.34
2023-04-14T16:05:15.768Z,95922.94
2023-04-14T16:09:16.197Z,95921.38
2023-04-14T16:13:17.106Z,95909.03
2023-04-14T16:17:17.591Z,95920.00
2023-04-14T16:21:20.437Z,95930.84
2023-04-14T16:25:22.834Z,95934.16
2023-04-14T16:29:23.646Z,95932.22
2023-04-14T16:33:24.073Z,95936.75
2023-04-14T16:37:28.521Z,95930.53
2023-04-14T16:41:29.037Z,95928.69
2023-04-14T16:45:29.317Z,95930.88
2023-04-14T16:49:29.723Z,95934.47
2023-04-14T16:53:32.823Z,95929.75
2023-04-14T16:57:33.386Z,95925.81
2023-04-14T17:01:33.710Z,95929.88
2023-04-14T17:05:34.046Z,95927.16
2023-04-14T17:09:37.084Z,95918.00
2023-04-14T17:13:37.479Z,95926.28
2023-04-14T17:17:38.738Z,95919.00
2023-04-14T17:21:39.256Z,95916.88
2023-04-14T17:25:42.115Z,95916.44
2023-04-14T17:29:42.844Z,95914.06
2023-04-14T17:33:44.587Z,95913.00
2023-04-14T17:37:44.857Z,95911.38
2023-04-14T17:41:48.128Z,95889.44
2023-04-14T17:45:50.633Z,95902.06
2023-04-14T17:49:52.717Z,95899.22
2023-04-14T17:53:53.912Z,95911.41
2023-04-14T17:57:57.893Z,95918.53
2023-04-14T18:01:58.174Z,95915.06
2023-04-14T18:05:58.469Z,95920.75
2023-04-14T18:09:58.784Z,95902.22
2023-04-14T18:14:02.128Z,95921.34
2023-04-14T18:18:03.201Z,95926.66
2023-04-14T18:22:03.814Z,95912.88
2023-04-14T18:30:12.364Z,95943.91
2023-04-14T18:34:14.049Z,95947.94
2023-04-14T18:38:14.254Z,95951.06
2023-04-14T18:42:15.503Z,95965.88
2023-04-14T18:46:18.490Z,95964.03
2023-04-14T18:50:20.477Z,95953.94
2023-04-14T18:54:21.569Z,95955.53
2023-04-14T18:58:23.236Z,95973.63
2023-04-14T19:02:26.423Z,95970.97
2023-04-14T19:06:26.868Z,95961.38
2023-04-14T19:10:27.964Z,95945.94
2023-04-14T19:14:28.580Z,95960.56
2023-04-14T19:18:31.410Z,95967.78
2023-04-14T19:22:31.616Z,95980.03
2023-04-14T19:26:34.564Z,95984.25
2023-04-14T19:30:35.778Z,95891.78
2023-04-14T19:34:38.685Z,95941.69
2023-04-14T19:38:39.750Z,95974.78
2023-04-14T19:42:40.081Z,95977.44
2023-04-14T19:46:42.359Z,95939.75
2023-04-14T19:50:45.708Z,95971.97
2023-04-14T19:54:46.532Z,95963.97
2023-04-14T19:58:46.784Z,95955.00
2023-04-14T20:02:47.528Z,95959.66
2023-04-14T20:06:50.734Z,95935.28
2023-04-14T20:10:52.093Z,95941.09
2023-04-14T20:14:52.606Z,95946.69
2023-04-14T20:18:53.085Z,95948.00
2023-04-14T20:22:57.453Z,95954.19
2023-04-14T20:26:57.795Z,95948.00
2023-04-14T20:30:58.502Z,95949.59
2023-04-14T20:34:58.932Z,95945.38
2023-04-14T20:39:01.979Z,95920.94
2023-04-14T20:43:02.617Z,95954.94
2023-04-14T20:47:03.950Z,95941.84
2023-04-14T20:51:04.483Z,95944.00
2023-04-14T20:55:13.628Z,95920.94
2023-04-14T20:59:17.092Z,95935.28
2023-04-14T21:03:17.706Z,95935.56
2023-04-14T21:07:18.347Z,95925.22
2023-04-14T21:11:22.850Z,95934.25
2023-04-14T21:15:50.560Z,95937.13
2023-04-14T21:19:46.737Z,95923.59
2023-04-14T21:23:48.777Z,95912.44
2023-04-14T21:27:52.301Z,95919.91
2023-04-14T21:31:54.329Z,95931.06
2023-04-14T21:35:55.815Z,95922.56
2023-04-14T21:39:59.480Z,95941.69
2023-04-14T21:44:02.937Z,95941.16
2023-04-14T21:48:05.474Z,95937.13
2023-04-14T21:52:06.032Z,95920.41
2023-04-14T21:56:10.353Z,95887.75
2023-04-14T22:00:18.323Z,95927.34
2023-04-14T22:04:33.107Z,95920.44
2023-04-14T22:08:36.163Z,95909.00
2023-04-14T22:12:37.718Z,95911.94
2023-04-14T22:16:41.254Z,95826.97
2023-04-14T22:20:41.545Z,95905.56
2023-04-14T22:24:41.671Z,95901.31
2023-04-14T22:28:42.194Z,95918.84
2023-04-14T22:32:45.002Z,95914.06
2023-04-14T22:36:45.409Z,95894.91
2023-04-14T22:40:52.333Z,95879.53
2023-04-14T22:45:00.157Z,95902.31
2023-04-14T22:49:03.752Z,95901.28
2023-04-14T22:53:04.044Z,95899.69
2023-04-14T22:57:04.264Z,95867.28
2023-04-14T23:01:15.522Z,95857.50
2023-04-14T23:05:24.548Z,95893.88
2023-04-14T23:09:24.851Z,95892.28
2023-04-14T23:13:25.350Z,95901.09
2023-04-14T23:17:25.744Z,95905.59
2023-04-14T23:21:28.683Z,95903.47
2023-04-14T23:25:29.697Z,95893.91
2023-04-14T23:29:29.974Z,95896.00
2023-04-14T23:33:30.499Z,95891.50
2023-04-14T23:37:33.495Z,95883.81
2023-04-14T23:41:34.007Z,95856.19
2023-04-14T23:45:37.436Z,95875.84
2023-04-14T23:49:37.734Z,95880.56
2023-04-14T23:53:40.489Z,95861.44
2023-04-14T23:57:40.934Z,95871.50
